CheckWX is a tool to help pilots better visualize weather data.  It is not intended as a substitute for an official pre-flight weather briefing.

10:21:15 UTC

KLBE METAR
Arnold Palmer Regional Airport
Latrobe, Pennsylvania, USA
Current

6 mins ago

KLBE 121015Z AUTO 27007G13KT 2 1/2SM -SN FEW002 BKN010 OVC080 M01/M01 A2998 RMK AO2
Observed
Nov-12 @ 10:15 UTC
Wind
  • 270° at 7 KTS
  • Gusting to 13 KTS
Visibility
2 1/2 SM
Flight Rules
IFR
Conditions
Light Snow
Cloud Levels
  • Few at 200' AGL
  • Broken at 1,000' AGL
  • Overcast at 8,000' AGL
Temperature
-1°C / 30°F
Dewpoint
-1°C / 30°F
Humidity
100%
Altimeter
29.98" Hg
Pressure
1015.22 hPa
Previous

26 mins ago

KLBE 120955Z AUTO 28007G13KT 2 1/2SM -SN BKN009 BKN013 OVC019 M01/M01 A2996 RMK AO2
Observed
Nov-12 @ 09:55 UTC
Wind
  • 280° at 7 KTS
  • Gusting to 13 KTS
Visibility
2 1/2 SM
Flight Rules
IFR
Conditions
Light Snow
Cloud Levels
  • Broken at 900' AGL
  • Broken at 1,300' AGL
  • Overcast at 1,900' AGL
Temperature
-1°C / 30°F
Dewpoint
-1°C / 30°F
Humidity
100%
Altimeter
29.96" Hg
Pressure
1014.52 hPa
Previous

46 mins ago

KLBE 120935Z AUTO 27006G13KT 3SM -SN FEW003 BKN011 OVC019 M01/M01 A2995 RMK AO2
Observed
Nov-12 @ 09:35 UTC
Wind
  • 270° at 6 KTS
  • Gusting to 13 KTS
Visibility
3 SM
Flight Rules
MVFR
Conditions
Light Snow
Cloud Levels
  • Few at 300' AGL
  • Broken at 1,100' AGL
  • Overcast at 1,900' AGL
Temperature
-1°C / 30°F
Dewpoint
-1°C / 30°F
Humidity
100%
Altimeter
29.95" Hg
Pressure
1014.22 hPa